sensor_id;sensor_type;location;lat;lon;timestamp;P1;durP1;ratioP1;P2;durP2;ratioP2
60726;SDS011;46577;49.004;12.120;2023-03-29T00:01:32;11.90;;;4.90;;
60726;SDS011;46577;49.004;12.120;2023-03-29T00:03:57;13.70;;;5.23;;
60726;SDS011;46577;49.004;12.120;2023-03-29T00:06:24;9.90;;;5.00;;
60726;SDS011;46577;49.004;12.120;2023-03-29T00:08:55;9.03;;;4.87;;
60726;SDS011;46577;49.004;12.120;2023-03-29T00:11:20;6.30;;;4.80;;
60726;SDS011;46577;49.004;12.120;2023-03-29T00:13:47;7.50;;;4.37;;
60726;SDS011;46577;49.004;12.120;2023-03-29T00:16:13;9.37;;;4.50;;
60726;SDS011;46577;49.004;12.120;2023-03-29T00:18:39;10.17;;;3.90;;
60726;SDS011;46577;49.004;12.120;2023-03-29T00:21:05;8.80;;;4.47;;
60726;SDS011;46577;49.004;12.120;2023-03-29T00:23:30;9.47;;;4.73;;
60726;SDS011;46577;49.004;12.120;2023-03-29T00:25:56;13.40;;;5.40;;
60726;SDS011;46577;49.004;12.120;2023-03-29T00:28:22;9.23;;;4.60;;
60726;SDS011;46577;49.004;12.120;2023-03-29T00:30:48;11.20;;;5.30;;
60726;SDS011;46577;49.004;12.120;2023-03-29T00:33:18;7.50;;;4.37;;
60726;SDS011;46577;49.004;12.120;2023-03-29T00:35:45;10.47;;;3.80;;
60726;SDS011;46577;49.004;12.120;2023-03-29T00:38:12;14.07;;;5.87;;
60726;SDS011;46577;49.004;12.120;2023-03-29T00:40:43;17.03;;;4.10;;
60726;SDS011;46577;49.004;12.120;2023-03-29T00:43:11;10.10;;;4.93;;
60726;SDS011;46577;49.004;12.120;2023-03-29T00:45:38;10.53;;;5.07;;
60726;SDS011;46577;49.004;12.120;2023-03-29T00:48:05;10.63;;;4.83;;
60726;SDS011;46577;49.004;12.120;2023-03-29T00:50:40;11.00;;;4.60;;
60726;SDS011;46577;49.004;12.120;2023-03-29T00:53:15;8.00;;;4.73;;
60726;SDS011;46577;49.004;12.120;2023-03-29T00:55:43;7.40;;;4.23;;
60726;SDS011;46577;49.004;12.120;2023-03-29T00:58:19;13.50;;;5.00;;
60726;SDS011;46577;49.004;12.120;2023-03-29T01:01:12;18.73;;;5.00;;
60726;SDS011;46577;49.004;12.120;2023-03-29T01:03:42;10.27;;;4.47;;
60726;SDS011;46577;49.004;12.120;2023-03-29T01:06:14;10.93;;;4.17;;
60726;SDS011;46577;49.004;12.120;2023-03-29T01:08:43;8.47;;;4.90;;
60726;SDS011;46577;49.004;12.120;2023-03-29T01:11:19;11.33;;;4.53;;
60726;SDS011;46577;49.004;12.120;2023-03-29T01:16:23;7.20;;;5.07;;
60726;SDS011;46577;49.004;12.120;2023-03-29T01:18:50;11.93;;;4.10;;
60726;SDS011;46577;49.004;12.120;2023-03-29T01:24:11;7.13;;;3.73;;
60726;SDS011;46577;49.004;12.120;2023-03-29T01:27:04;7.73;;;4.07;;
60726;SDS011;46577;49.004;12.120;2023-03-29T01:29:48;10.47;;;4.53;;
60726;SDS011;46577;49.004;12.120;2023-03-29T01:32:25;9.67;;;3.90;;
60726;SDS011;46577;49.004;12.120;2023-03-29T01:35:08;11.00;;;3.80;;
60726;SDS011;46577;49.004;12.120;2023-03-29T01:37:40;15.20;;;4.17;;
60726;SDS011;46577;49.004;12.120;2023-03-29T01:40:12;12.40;;;3.57;;
60726;SDS011;46577;49.004;12.120;2023-03-29T01:47:47;7.37;;;3.20;;
60726;SDS011;46577;49.004;12.120;2023-03-29T01:50:27;5.77;;;3.50;;
60726;SDS011;46577;49.004;12.120;2023-03-29T01:52:59;9.93;;;3.63;;
60726;SDS011;46577;49.004;12.120;2023-03-29T01:55:31;7.37;;;3.40;;
60726;SDS011;46577;49.004;12.120;2023-03-29T01:58:00;7.23;;;3.60;;
60726;SDS011;46577;49.004;12.120;2023-03-29T02:00:28;11.37;;;3.40;;
60726;SDS011;46577;49.004;12.120;2023-03-29T02:02:57;9.13;;;3.77;;
60726;SDS011;46577;49.004;12.120;2023-03-29T02:05:25;9.03;;;3.17;;
60726;SDS011;46577;49.004;12.120;2023-03-29T02:07:53;8.50;;;3.23;;
60726;SDS011;46577;49.004;12.120;2023-03-29T02:10:20;10.43;;;3.50;;
60726;SDS011;46577;49.004;12.120;2023-03-29T02:12:46;8.67;;;3.50;;
60726;SDS011;46577;49.004;12.120;2023-03-29T02:15:14;4.90;;;3.17;;
60726;SDS011;46577;49.004;12.120;2023-03-29T02:17:45;10.13;;;3.03;;
60726;SDS011;46577;49.004;12.120;2023-03-29T02:20:18;15.43;;;3.57;;
60726;SDS011;46577;49.004;12.120;2023-03-29T02:23:03;6.80;;;3.80;;
60726;SDS011;46577;49.004;12.120;2023-03-29T02:25:42;6.07;;;3.10;;
60726;SDS011;46577;49.004;12.120;2023-03-29T02:28:09;8.10;;;3.73;;
60726;SDS011;46577;49.004;12.120;2023-03-29T02:33:17;5.63;;;3.30;;
60726;SDS011;46577;49.004;12.120;2023-03-29T02:35:50;8.43;;;3.30;;
60726;SDS011;46577;49.004;12.120;2023-03-29T02:38:23;9.20;;;3.47;;
60726;SDS011;46577;49.004;12.120;2023-03-29T02:40:51;4.90;;;2.90;;
60726;SDS011;46577;49.004;12.120;2023-03-29T02:43:19;8.10;;;4.20;;
60726;SDS011;46577;49.004;12.120;2023-03-29T02:45:46;7.70;;;3.30;;
60726;SDS011;46577;49.004;12.120;2023-03-29T02:48:13;7.60;;;3.80;;
60726;SDS011;46577;49.004;12.120;2023-03-29T02:50:45;6.17;;;3.33;;
60726;SDS011;46577;49.004;12.120;2023-03-29T02:53:15;8.80;;;3.73;;
60726;SDS011;46577;49.004;12.120;2023-03-29T02:55:43;10.20;;;3.50;;
60726;SDS011;46577;49.004;12.120;2023-03-29T02:58:10;6.87;;;3.20;;
60726;SDS011;46577;49.004;12.120;2023-03-29T03:00:38;8.27;;;3.60;;
60726;SDS011;46577;49.004;12.120;2023-03-29T03:03:09;7.03;;;3.37;;
60726;SDS011;46577;49.004;12.120;2023-03-29T03:05:36;9.13;;;3.70;;
60726;SDS011;46577;49.004;12.120;2023-03-29T03:08:02;5.43;;;3.30;;
60726;SDS011;46577;49.004;12.120;2023-03-29T03:10:28;7.57;;;3.80;;
60726;SDS011;46577;49.004;12.120;2023-03-29T03:12:54;6.93;;;3.67;;
60726;SDS011;46577;49.004;12.120;2023-03-29T03:15:20;8.73;;;4.17;;
60726;SDS011;46577;49.004;12.120;2023-03-29T03:17:46;7.43;;;2.97;;
60726;SDS011;46577;49.004;12.120;2023-03-29T03:20:13;8.27;;;3.73;;
60726;SDS011;46577;49.004;12.120;2023-03-29T03:22:39;9.93;;;3.83;;
60726;SDS011;46577;49.004;12.120;2023-03-29T03:25:06;5.90;;;3.50;;
60726;SDS011;46577;49.004;12.120;2023-03-29T03:27:36;16.00;;;4.03;;
60726;SDS011;46577;49.004;12.120;2023-03-29T03:30:04;11.10;;;3.70;;
60726;SDS011;46577;49.004;12.120;2023-03-29T03:32:30;11.27;;;4.63;;
60726;SDS011;46577;49.004;12.120;2023-03-29T03:34:58;6.00;;;3.70;;
60726;SDS011;46577;49.004;12.120;2023-03-29T03:37:24;10.97;;;4.53;;
60726;SDS011;46577;49.004;12.120;2023-03-29T03:39:51;8.47;;;5.00;;
60726;SDS011;46577;49.004;12.120;2023-03-29T03:42:17;9.80;;;3.73;;
60726;SDS011;46577;49.004;12.120;2023-03-29T03:44:43;6.47;;;4.00;;
60726;SDS011;46577;49.004;12.120;2023-03-29T03:47:09;8.20;;;4.30;;
60726;SDS011;46577;49.004;12.120;2023-03-29T03:49:35;8.10;;;4.20;;
60726;SDS011;46577;49.004;12.120;2023-03-29T03:52:00;8.97;;;4.53;;
60726;SDS011;46577;49.004;12.120;2023-03-29T03:54:26;12.97;;;4.70;;
60726;SDS011;46577;49.004;12.120;2023-03-29T03:56:51;7.40;;;4.10;;
60726;SDS011;46577;49.004;12.120;2023-03-29T03:59:18;6.67;;;4.40;;
60726;SDS011;46577;49.004;12.120;2023-03-29T04:01:43;7.83;;;4.53;;
60726;SDS011;46577;49.004;12.120;2023-03-29T04:04:11;10.10;;;4.97;;
60726;SDS011;46577;49.004;12.120;2023-03-29T04:06:37;11.00;;;4.83;;
60726;SDS011;46577;49.004;12.120;2023-03-29T04:09:03;10.83;;;5.00;;
60726;SDS011;46577;49.004;12.120;2023-03-29T04:11:29;7.13;;;4.90;;
60726;SDS011;46577;49.004;12.120;2023-03-29T04:13:55;9.27;;;4.90;;
60726;SDS011;46577;49.004;12.120;2023-03-29T04:16:21;13.27;;;6.30;;
60726;SDS011;46577;49.004;12.120;2023-03-29T04:18:47;10.60;;;6.33;;
60726;SDS011;46577;49.004;12.120;2023-03-29T04:21:14;21.07;;;5.80;;
60726;SDS011;46577;49.004;12.120;2023-03-29T04:23:40;12.30;;;5.70;;
60726;SDS011;46577;49.004;12.120;2023-03-29T04:26:07;13.07;;;5.57;;
60726;SDS011;46577;49.004;12.120;2023-03-29T04:28:33;12.47;;;6.60;;
60726;SDS011;46577;49.004;12.120;2023-03-29T04:30:59;12.37;;;5.20;;
60726;SDS011;46577;49.004;12.120;2023-03-29T04:33:25;8.70;;;5.23;;
60726;SDS011;46577;49.004;12.120;2023-03-29T04:35:50;9.30;;;5.50;;
60726;SDS011;46577;49.004;12.120;2023-03-29T04:38:16;11.57;;;5.30;;
60726;SDS011;46577;49.004;12.120;2023-03-29T04:40:46;16.70;;;6.60;;
60726;SDS011;46577;49.004;12.120;2023-03-29T04:43:13;26.10;;;7.83;;
60726;SDS011;46577;49.004;12.120;2023-03-29T04:45:38;11.23;;;6.40;;
60726;SDS011;46577;49.004;12.120;2023-03-29T04:48:04;17.70;;;6.53;;
60726;SDS011;46577;49.004;12.120;2023-03-29T04:50:29;10.43;;;6.70;;
60726;SDS011;46577;49.004;12.120;2023-03-29T04:52:56;19.00;;;7.17;;
60726;SDS011;46577;49.004;12.120;2023-03-29T04:55:24;13.63;;;6.70;;
60726;SDS011;46577;49.004;12.120;2023-03-29T04:57:50;19.00;;;7.37;;
60726;SDS011;46577;49.004;12.120;2023-03-29T05:00:17;10.67;;;6.13;;
60726;SDS011;46577;49.004;12.120;2023-03-29T05:02:44;13.77;;;6.43;;
60726;SDS011;46577;49.004;12.120;2023-03-29T05:05:10;10.37;;;6.20;;
60726;SDS011;46577;49.004;12.120;2023-03-29T05:07:37;12.20;;;6.20;;
60726;SDS011;46577;49.004;12.120;2023-03-29T05:10:03;9.63;;;6.00;;
60726;SDS011;46577;49.004;12.120;2023-03-29T05:12:30;9.17;;;6.37;;
60726;SDS011;46577;49.004;12.120;2023-03-29T05:14:56;11.63;;;6.20;;
60726;SDS011;46577;49.004;12.120;2023-03-29T05:17:22;10.90;;;6.20;;
60726;SDS011;46577;49.004;12.120;2023-03-29T05:19:50;27.43;;;7.40;;
60726;SDS011;46577;49.004;12.120;2023-03-29T05:22:16;10.73;;;6.63;;
60726;SDS011;46577;49.004;12.120;2023-03-29T05:24:42;15.90;;;6.30;;
60726;SDS011;46577;49.004;12.120;2023-03-29T05:27:08;14.40;;;7.47;;
60726;SDS011;46577;49.004;12.120;2023-03-29T05:29:34;14.93;;;7.00;;
60726;SDS011;46577;49.004;12.120;2023-03-29T05:31:59;16.83;;;7.60;;
60726;SDS011;46577;49.004;12.120;2023-03-29T05:34:25;9.23;;;6.50;;
60726;SDS011;46577;49.004;12.120;2023-03-29T05:36:51;10.20;;;7.07;;
60726;SDS011;46577;49.004;12.120;2023-03-29T05:39:17;17.57;;;7.70;;
60726;SDS011;46577;49.004;12.120;2023-03-29T05:41:42;11.10;;;7.93;;
60726;SDS011;46577;49.004;12.120;2023-03-29T05:44:08;13.60;;;8.10;;
60726;SDS011;46577;49.004;12.120;2023-03-29T05:46:34;13.33;;;7.70;;
60726;SDS011;46577;49.004;12.120;2023-03-29T05:48:59;14.57;;;8.33;;
60726;SDS011;46577;49.004;12.120;2023-03-29T05:51:26;16.80;;;8.00;;
60726;SDS011;46577;49.004;12.120;2023-03-29T05:53:51;20.07;;;8.13;;
60726;SDS011;46577;49.004;12.120;2023-03-29T05:56:17;13.23;;;7.73;;
60726;SDS011;46577;49.004;12.120;2023-03-29T05:58:44;24.47;;;8.50;;
60726;SDS011;46577;49.004;12.120;2023-03-29T06:01:13;15.03;;;8.07;;
60726;SDS011;46577;49.004;12.120;2023-03-29T06:03:39;22.20;;;7.70;;
60726;SDS011;46577;49.004;12.120;2023-03-29T06:06:06;14.63;;;7.07;;
60726;SDS011;46577;49.004;12.120;2023-03-29T06:08:32;16.80;;;7.70;;
60726;SDS011;46577;49.004;12.120;2023-03-29T06:11:03;15.87;;;7.97;;
60726;SDS011;46577;49.004;12.120;2023-03-29T06:13:30;10.17;;;6.57;;
60726;SDS011;46577;49.004;12.120;2023-03-29T06:15:58;9.67;;;6.33;;
60726;SDS011;46577;49.004;12.120;2023-03-29T06:18:23;10.00;;;6.80;;
60726;SDS011;46577;49.004;12.120;2023-03-29T06:20:50;11.67;;;5.83;;
60726;SDS011;46577;49.004;12.120;2023-03-29T06:23:17;10.03;;;5.80;;
60726;SDS011;46577;49.004;12.120;2023-03-29T06:25:44;15.67;;;7.20;;
60726;SDS011;46577;49.004;12.120;2023-03-29T06:28:10;13.40;;;6.40;;
60726;SDS011;46577;49.004;12.120;2023-03-29T06:30:37;17.43;;;6.27;;
60726;SDS011;46577;49.004;12.120;2023-03-29T06:33:03;10.53;;;5.80;;
60726;SDS011;46577;49.004;12.120;2023-03-29T06:35:32;19.00;;;6.90;;
60726;SDS011;46577;49.004;12.120;2023-03-29T06:37:59;9.53;;;6.73;;
60726;SDS011;46577;49.004;12.120;2023-03-29T06:40:25;12.47;;;7.03;;
60726;SDS011;46577;49.004;12.120;2023-03-29T06:42:51;9.30;;;5.93;;
60726;SDS011;46577;49.004;12.120;2023-03-29T06:45:25;12.33;;;6.47;;
60726;SDS011;46577;49.004;12.120;2023-03-29T06:47:51;8.47;;;6.37;;
60726;SDS011;46577;49.004;12.120;2023-03-29T06:50:17;15.07;;;6.70;;
60726;SDS011;46577;49.004;12.120;2023-03-29T06:52:43;16.40;;;5.90;;
60726;SDS011;46577;49.004;12.120;2023-03-29T06:55:10;10.33;;;7.27;;
60726;SDS011;46577;49.004;12.120;2023-03-29T06:57:36;10.43;;;5.90;;
60726;SDS011;46577;49.004;12.120;2023-03-29T07:00:03;10.70;;;6.47;;
60726;SDS011;46577;49.004;12.120;2023-03-29T07:02:41;12.43;;;6.70;;
60726;SDS011;46577;49.004;12.120;2023-03-29T07:05:07;11.47;;;6.57;;
60726;SDS011;46577;49.004;12.120;2023-03-29T07:07:40;11.80;;;5.90;;
60726;SDS011;46577;49.004;12.120;2023-03-29T07:10:19;16.30;;;6.13;;
60726;SDS011;46577;49.004;12.120;2023-03-29T07:12:50;8.30;;;5.87;;
60726;SDS011;46577;49.004;12.120;2023-03-29T07:15:16;13.47;;;5.97;;
60726;SDS011;46577;49.004;12.120;2023-03-29T07:17:43;9.30;;;5.40;;
60726;SDS011;46577;49.004;12.120;2023-03-29T07:20:08;10.17;;;5.40;;
60726;SDS011;46577;49.004;12.120;2023-03-29T07:22:41;8.10;;;5.27;;
60726;SDS011;46577;49.004;12.120;2023-03-29T07:25:08;10.53;;;5.70;;
60726;SDS011;46577;49.004;12.120;2023-03-29T07:27:36;20.10;;;7.07;;
60726;SDS011;46577;49.004;12.120;2023-03-29T07:30:03;10.37;;;5.50;;
60726;SDS011;46577;49.004;12.120;2023-03-29T07:32:34;10.73;;;5.37;;
60726;SDS011;46577;49.004;12.120;2023-03-29T07:35:03;8.33;;;5.07;;
60726;SDS011;46577;49.004;12.120;2023-03-29T07:37:30;11.60;;;5.90;;
60726;SDS011;46577;49.004;12.120;2023-03-29T07:39:58;9.27;;;5.80;;
60726;SDS011;46577;49.004;12.120;2023-03-29T07:42:33;6.93;;;6.00;;
60726;SDS011;46577;49.004;12.120;2023-03-29T07:45:01;11.00;;;5.43;;
60726;SDS011;46577;49.004;12.120;2023-03-29T07:47:31;10.60;;;5.60;;
60726;SDS011;46577;49.004;12.120;2023-03-29T07:49:57;6.90;;;5.37;;
60726;SDS011;46577;49.004;12.120;2023-03-29T07:52:23;6.63;;;5.30;;
60726;SDS011;46577;49.004;12.120;2023-03-29T07:54:51;7.37;;;5.40;;
60726;SDS011;46577;49.004;12.120;2023-03-29T07:57:17;8.17;;;5.40;;
60726;SDS011;46577;49.004;12.120;2023-03-29T07:59:43;11.10;;;5.17;;
60726;SDS011;46577;49.004;12.120;2023-03-29T08:02:12;11.67;;;4.90;;
60726;SDS011;46577;49.004;12.120;2023-03-29T08:04:38;7.70;;;5.20;;
60726;SDS011;46577;49.004;12.120;2023-03-29T08:07:04;7.73;;;6.13;;
60726;SDS011;46577;49.004;12.120;2023-03-29T08:09:30;12.03;;;6.37;;
60726;SDS011;46577;49.004;12.120;2023-03-29T08:11:56;6.70;;;5.20;;
60726;SDS011;46577;49.004;12.120;2023-03-29T08:14:22;7.73;;;5.80;;
60726;SDS011;46577;49.004;12.120;2023-03-29T08:16:48;9.00;;;4.90;;
60726;SDS011;46577;49.004;12.120;2023-03-29T08:19:15;8.13;;;5.53;;
60726;SDS011;46577;49.004;12.120;2023-03-29T08:21:41;6.60;;;5.97;;
60726;SDS011;46577;49.004;12.120;2023-03-29T08:24:07;14.17;;;6.67;;
60726;SDS011;46577;49.004;12.120;2023-03-29T08:26:33;11.27;;;6.67;;
60726;SDS011;46577;49.004;12.120;2023-03-29T08:28:58;12.17;;;6.10;;
60726;SDS011;46577;49.004;12.120;2023-03-29T08:31:24;8.07;;;4.70;;
60726;SDS011;46577;49.004;12.120;2023-03-29T08:33:51;6.37;;;5.20;;
60726;SDS011;46577;49.004;12.120;2023-03-29T08:36:17;7.00;;;5.37;;
60726;SDS011;46577;49.004;12.120;2023-03-29T08:38:43;6.30;;;5.23;;
60726;SDS011;46577;49.004;12.120;2023-03-29T08:46:58;6.93;;;5.10;;
60726;SDS011;46577;49.004;12.120;2023-03-29T08:49:26;8.63;;;4.90;;
60726;SDS011;46577;49.004;12.120;2023-03-29T08:51:57;6.47;;;4.60;;
60726;SDS011;46577;49.004;12.120;2023-03-29T08:54:42;12.20;;;5.07;;
60726;SDS011;46577;49.004;12.120;2023-03-29T08:57:17;9.40;;;5.07;;
60726;SDS011;46577;49.004;12.120;2023-03-29T08:59:48;7.63;;;5.07;;
60726;SDS011;46577;49.004;12.120;2023-03-29T09:02:17;9.23;;;4.90;;
60726;SDS011;46577;49.004;12.120;2023-03-29T09:04:48;6.80;;;4.90;;
60726;SDS011;46577;49.004;12.120;2023-03-29T09:07:16;4.43;;;4.03;;
60726;SDS011;46577;49.004;12.120;2023-03-29T09:09:42;9.37;;;5.30;;
60726;SDS011;46577;49.004;12.120;2023-03-29T09:17:47;9.07;;;5.10;;
60726;SDS011;46577;49.004;12.120;2023-03-29T09:25:46;5.57;;;4.70;;
60726;SDS011;46577;49.004;12.120;2023-03-29T09:28:18;6.57;;;4.50;;
60726;SDS011;46577;49.004;12.120;2023-03-29T09:33:24;11.03;;;4.37;;
60726;SDS011;46577;49.004;12.120;2023-03-29T09:35:53;10.50;;;4.97;;
60726;SDS011;46577;49.004;12.120;2023-03-29T09:38:30;9.60;;;5.20;;
60726;SDS011;46577;49.004;12.120;2023-03-29T09:40:57;8.67;;;4.53;;
60726;SDS011;46577;49.004;12.120;2023-03-29T09:43:31;9.07;;;4.40;;
60726;SDS011;46577;49.004;12.120;2023-03-29T09:46:01;9.17;;;5.10;;
60726;SDS011;46577;49.004;12.120;2023-03-29T09:48:30;8.47;;;5.00;;
60726;SDS011;46577;49.004;12.120;2023-03-29T09:51:03;11.00;;;4.87;;
60726;SDS011;46577;49.004;12.120;2023-03-29T09:53:31;10.77;;;5.13;;
60726;SDS011;46577;49.004;12.120;2023-03-29T09:55:58;8.90;;;4.83;;
60726;SDS011;46577;49.004;12.120;2023-03-29T09:58:26;7.43;;;4.17;;
60726;SDS011;46577;49.004;12.120;2023-03-29T10:00:58;8.70;;;4.43;;
60726;SDS011;46577;49.004;12.120;2023-03-29T10:03:28;7.07;;;4.73;;
60726;SDS011;46577;49.004;12.120;2023-03-29T10:05:57;5.77;;;4.67;;
60726;SDS011;46577;49.004;12.120;2023-03-29T10:08:34;11.43;;;4.33;;
60726;SDS011;46577;49.004;12.120;2023-03-29T10:11:19;6.83;;;4.20;;
60726;SDS011;46577;49.004;12.120;2023-03-29T10:13:47;5.77;;;4.43;;
60726;SDS011;46577;49.004;12.120;2023-03-29T10:18:48;7.37;;;4.63;;
60726;SDS011;46577;49.004;12.120;2023-03-29T10:21:15;4.73;;;3.40;;
60726;SDS011;46577;49.004;12.120;2023-03-29T10:23:44;5.10;;;4.13;;
60726;SDS011;46577;49.004;12.120;2023-03-29T10:26:30;6.70;;;3.97;;
60726;SDS011;46577;49.004;12.120;2023-03-29T10:28:57;7.23;;;4.10;;
60726;SDS011;46577;49.004;12.120;2023-03-29T10:31:26;5.53;;;3.73;;
60726;SDS011;46577;49.004;12.120;2023-03-29T10:33:57;6.23;;;3.87;;
60726;SDS011;46577;49.004;12.120;2023-03-29T10:36:27;4.37;;;3.90;;
60726;SDS011;46577;49.004;12.120;2023-03-29T10:38:55;6.23;;;4.27;;
60726;SDS011;46577;49.004;12.120;2023-03-29T10:41:23;5.67;;;4.00;;
60726;SDS011;46577;49.004;12.120;2023-03-29T10:43:51;9.17;;;4.30;;
60726;SDS011;46577;49.004;12.120;2023-03-29T10:46:27;9.13;;;4.73;;
60726;SDS011;46577;49.004;12.120;2023-03-29T10:49:02;5.67;;;3.90;;
60726;SDS011;46577;49.004;12.120;2023-03-29T10:51:30;7.87;;;4.57;;
60726;SDS011;46577;49.004;12.120;2023-03-29T10:53:59;11.57;;;4.70;;
60726;SDS011;46577;49.004;12.120;2023-03-29T10:59:12;5.00;;;4.17;;
60726;SDS011;46577;49.004;12.120;2023-03-29T11:25:49;7.43;;;4.43;;
60726;SDS011;46577;49.004;12.120;2023-03-29T11:31:30;9.60;;;4.40;;
60726;SDS011;46577;49.004;12.120;2023-03-29T11:34:11;4.93;;;3.57;;
60726;SDS011;46577;49.004;12.120;2023-03-29T11:37:00;7.40;;;5.07;;
60726;SDS011;46577;49.004;12.120;2023-03-29T11:42:34;8.40;;;4.13;;
60726;SDS011;46577;49.004;12.120;2023-03-29T11:45:05;10.60;;;4.00;;
60726;SDS011;46577;49.004;12.120;2023-03-29T11:47:39;6.10;;;4.10;;
60726;SDS011;46577;49.004;12.120;2023-03-29T11:50:13;11.20;;;6.07;;
60726;SDS011;46577;49.004;12.120;2023-03-29T11:52:53;5.43;;;4.40;;
60726;SDS011;46577;49.004;12.120;2023-03-29T11:55:27;10.60;;;4.70;;
60726;SDS011;46577;49.004;12.120;2023-03-29T11:58:01;7.77;;;5.10;;
60726;SDS011;46577;49.004;12.120;2023-03-29T12:00:30;5.10;;;4.30;;
60726;SDS011;46577;49.004;12.120;2023-03-29T12:02:58;8.27;;;4.80;;
60726;SDS011;46577;49.004;12.120;2023-03-29T12:05:30;10.70;;;6.30;;
60726;SDS011;46577;49.004;12.120;2023-03-29T12:10:48;4.53;;;4.00;;
60726;SDS011;46577;49.004;12.120;2023-03-29T12:13:21;5.60;;;4.10;;
60726;SDS011;46577;49.004;12.120;2023-03-29T12:18:35;8.03;;;4.70;;
60726;SDS011;46577;49.004;12.120;2023-03-29T12:21:07;7.13;;;4.87;;
60726;SDS011;46577;49.004;12.120;2023-03-29T12:23:37;7.43;;;5.30;;
60726;SDS011;46577;49.004;12.120;2023-03-29T12:39:42;10.63;;;4.83;;
60726;SDS011;46577;49.004;12.120;2023-03-29T12:44:59;8.67;;;5.30;;
60726;SDS011;46577;49.004;12.120;2023-03-29T12:47:26;4.83;;;4.33;;
60726;SDS011;46577;49.004;12.120;2023-03-29T12:49:57;8.77;;;4.63;;
60726;SDS011;46577;49.004;12.120;2023-03-29T12:52:35;8.60;;;5.67;;
60726;SDS011;46577;49.004;12.120;2023-03-29T12:55:02;9.97;;;5.23;;
60726;SDS011;46577;49.004;12.120;2023-03-29T12:57:43;7.07;;;5.70;;
60726;SDS011;46577;49.004;12.120;2023-03-29T13:03:19;7.37;;;5.50;;
60726;SDS011;46577;49.004;12.120;2023-03-29T13:06:01;7.13;;;5.33;;
60726;SDS011;46577;49.004;12.120;2023-03-29T13:08:39;7.53;;;5.70;;
60726;SDS011;46577;49.004;12.120;2023-03-29T13:11:11;7.27;;;5.77;;
60726;SDS011;46577;49.004;12.120;2023-03-29T13:13:52;7.23;;;5.40;;
60726;SDS011;46577;49.004;12.120;2023-03-29T13:16:28;6.53;;;5.17;;
60726;SDS011;46577;49.004;12.120;2023-03-29T13:27:34;7.80;;;5.53;;
60726;SDS011;46577;49.004;12.120;2023-03-29T13:33:09;11.87;;;5.53;;
60726;SDS011;46577;49.004;12.120;2023-03-29T13:36:02;9.20;;;6.10;;
60726;SDS011;46577;49.004;12.120;2023-03-29T13:38:46;8.53;;;4.73;;
60726;SDS011;46577;49.004;12.120;2023-03-29T13:41:25;9.97;;;4.27;;
60726;SDS011;46577;49.004;12.120;2023-03-29T13:44:03;6.63;;;4.60;;
60726;SDS011;46577;49.004;12.120;2023-03-29T13:46:41;7.60;;;5.10;;
60726;SDS011;46577;49.004;12.120;2023-03-29T13:49:16;6.90;;;4.60;;
60726;SDS011;46577;49.004;12.120;2023-03-29T13:51:52;5.80;;;4.87;;
60726;SDS011;46577;49.004;12.120;2023-03-29T13:54:51;10.20;;;5.03;;
60726;SDS011;46577;49.004;12.120;2023-03-29T13:57:40;15.03;;;6.30;;
60726;SDS011;46577;49.004;12.120;2023-03-29T14:05:12;8.27;;;5.30;;
60726;SDS011;46577;49.004;12.120;2023-03-29T14:07:43;6.37;;;5.23;;
60726;SDS011;46577;49.004;12.120;2023-03-29T14:10:13;8.00;;;5.50;;
60726;SDS011;46577;49.004;12.120;2023-03-29T14:12:42;5.50;;;4.73;;
60726;SDS011;46577;49.004;12.120;2023-03-29T14:15:17;6.47;;;4.50;;
60726;SDS011;46577;49.004;12.120;2023-03-29T14:17:51;7.00;;;5.10;;
60726;SDS011;46577;49.004;12.120;2023-03-29T14:20:18;7.90;;;5.00;;
60726;SDS011;46577;49.004;12.120;2023-03-29T14:22:44;10.73;;;5.13;;
60726;SDS011;46577;49.004;12.120;2023-03-29T14:25:12;6.13;;;4.50;;
60726;SDS011;46577;49.004;12.120;2023-03-29T14:27:40;8.20;;;5.10;;
60726;SDS011;46577;49.004;12.120;2023-03-29T14:30:19;6.63;;;5.30;;
60726;SDS011;46577;49.004;12.120;2023-03-29T14:32:53;8.40;;;5.00;;
60726;SDS011;46577;49.004;12.120;2023-03-29T14:35:20;5.60;;;4.53;;
60726;SDS011;46577;49.004;12.120;2023-03-29T14:37:53;8.70;;;5.30;;
60726;SDS011;46577;49.004;12.120;2023-03-29T14:40:19;12.53;;;4.97;;
60726;SDS011;46577;49.004;12.120;2023-03-29T14:42:46;7.00;;;5.30;;
60726;SDS011;46577;49.004;12.120;2023-03-29T14:45:14;11.53;;;5.90;;
60726;SDS011;46577;49.004;12.120;2023-03-29T14:47:43;16.60;;;5.20;;
60726;SDS011;46577;49.004;12.120;2023-03-29T14:50:17;6.60;;;4.73;;
60726;SDS011;46577;49.004;12.120;2023-03-29T14:52:46;11.87;;;5.30;;
60726;SDS011;46577;49.004;12.120;2023-03-29T14:55:14;9.03;;;5.30;;
60726;SDS011;46577;49.004;12.120;2023-03-29T14:57:42;9.47;;;5.37;;
60726;SDS011;46577;49.004;12.120;2023-03-29T15:00:50;9.67;;;5.40;;
60726;SDS011;46577;49.004;12.120;2023-03-29T15:03:13;7.43;;;5.77;;
60726;SDS011;46577;49.004;12.120;2023-03-29T15:05:40;11.90;;;5.20;;
60726;SDS011;46577;49.004;12.120;2023-03-29T15:08:15;8.83;;;5.50;;
60726;SDS011;46577;49.004;12.120;2023-03-29T15:10:52;7.67;;;4.97;;
60726;SDS011;46577;49.004;12.120;2023-03-29T15:13:19;7.23;;;4.83;;
60726;SDS011;46577;49.004;12.120;2023-03-29T15:15:49;12.43;;;4.97;;
60726;SDS011;46577;49.004;12.120;2023-03-29T15:18:28;7.93;;;5.77;;
60726;SDS011;46577;49.004;12.120;2023-03-29T15:20:58;11.43;;;6.03;;
60726;SDS011;46577;49.004;12.120;2023-03-29T15:23:25;7.27;;;5.13;;
60726;SDS011;46577;49.004;12.120;2023-03-29T15:26:13;6.90;;;4.97;;
60726;SDS011;46577;49.004;12.120;2023-03-29T15:28:47;9.10;;;5.50;;
60726;SDS011;46577;49.004;12.120;2023-03-29T15:31:25;7.57;;;5.60;;
60726;SDS011;46577;49.004;12.120;2023-03-29T15:36:32;8.97;;;4.90;;
60726;SDS011;46577;49.004;12.120;2023-03-29T15:38:58;13.50;;;6.00;;
60726;SDS011;46577;49.004;12.120;2023-03-29T15:41:25;6.23;;;5.40;;
60726;SDS011;46577;49.004;12.120;2023-03-29T15:43:51;11.53;;;5.53;;
60726;SDS011;46577;49.004;12.120;2023-03-29T15:46:19;8.47;;;5.60;;
60726;SDS011;46577;49.004;12.120;2023-03-29T15:48:45;8.30;;;5.33;;
60726;SDS011;46577;49.004;12.120;2023-03-29T15:51:10;5.10;;;4.60;;
60726;SDS011;46577;49.004;12.120;2023-03-29T15:53:36;8.20;;;5.23;;
60726;SDS011;46577;49.004;12.120;2023-03-29T15:56:03;13.60;;;5.23;;
60726;SDS011;46577;49.004;12.120;2023-03-29T15:58:31;7.13;;;5.10;;
60726;SDS011;46577;49.004;12.120;2023-03-29T16:01:01;7.37;;;5.27;;
60726;SDS011;46577;49.004;12.120;2023-03-29T16:03:42;11.43;;;5.40;;
60726;SDS011;46577;49.004;12.120;2023-03-29T16:06:10;7.70;;;5.57;;
60726;SDS011;46577;49.004;12.120;2023-03-29T16:08:35;5.70;;;5.10;;
60726;SDS011;46577;49.004;12.120;2023-03-29T16:11:01;16.27;;;5.97;;
60726;SDS011;46577;49.004;12.120;2023-03-29T16:13:29;10.00;;;5.63;;
60726;SDS011;46577;49.004;12.120;2023-03-29T16:15:54;6.43;;;5.33;;
60726;SDS011;46577;49.004;12.120;2023-03-29T16:18:21;6.57;;;5.87;;
60726;SDS011;46577;49.004;12.120;2023-03-29T16:20:46;6.90;;;5.57;;
60726;SDS011;46577;49.004;12.120;2023-03-29T16:23:13;7.10;;;5.17;;
60726;SDS011;46577;49.004;12.120;2023-03-29T16:25:39;8.60;;;5.83;;
60726;SDS011;46577;49.004;12.120;2023-03-29T16:28:05;10.33;;;5.13;;
60726;SDS011;46577;49.004;12.120;2023-03-29T16:30:33;8.07;;;5.90;;
60726;SDS011;46577;49.004;12.120;2023-03-29T16:33:00;7.67;;;6.60;;
60726;SDS011;46577;49.004;12.120;2023-03-29T16:35:30;7.47;;;5.47;;